Time;durP1;ratioP1;P1;durP2;ratioP2;P2;SDS_P1;SDS_P2;PMS_P1;PMS_P2;Temp;Humidity;BMP_temperature;BMP_pressure;BME280_temperature;BME280_humidity;BME280_pressure;Samples;Min_cycle;Max_cycle;Signal;HPM_P1;HPM_P2
2022/06/09 00:03:05;;;;;;;;;;;;;;;12.15;66.37;95315.53;6247595;28;19920;-67
2022/06/09 00:06:09;;;;;;;;;;;;;;;12.05;66.81;95315.56;6247831;28;19921;-67
2022/06/09 00:09:13;;;;;;;;;;;;;;;12.09;66.82;95320.41;6247874;28;20306;-67
2022/06/09 00:12:18;;;;;;;;;;;;;;;12.13;66.94;95316.50;6247560;28;20312;-68
2022/06/09 00:15:24;;;;;;;;;;;;;;;12.19;66.74;95306.34;6247621;28;19921;-68
2022/06/09 00:18:27;;;;;;;;;;;;;;;11.98;67.25;95310.06;6247638;28;19920;-67
2022/06/09 00:21:28;;;;;;;;;;;;;;;12.22;66.63;95306.03;6247469;28;20019;-68
2022/06/09 00:24:30;;;;;;;;;;;;;;;12.10;66.95;95303.63;6247360;28;19920;-67
2022/06/09 00:27:34;;;;;;;;;;;;;;;12.13;66.95;95311.22;6247462;28;20315;-66
2022/06/09 00:30:36;;;;;;;;;;;;;;;12.27;66.96;95324.91;6247417;28;20047;-68
2022/06/09 00:33:39;;;;;;;;;;;;;;;12.35;66.68;95325.00;6246720;28;19921;-68
2022/06/09 00:36:42;;;;;;;;;;;;;;;12.22;67.07;95327.16;6247060;28;20051;-67
2022/06/09 00:39:48;;;;;;;;;;;;;;;12.21;67.13;95338.69;6246917;28;19921;-66
2022/06/09 00:42:52;;;;;;;;;;;;;;;12.26;67.19;95336.44;6247117;28;19921;-67
2022/06/09 00:46:02;;;;;;;;;;;;;;;12.31;67.06;95336.81;6246825;28;19921;-66
2022/06/09 00:49:11;;;;;;;;;;;;;;;12.26;66.97;95346.97;6246612;28;20300;-68
2022/06/09 00:52:20;;;;;;;;;;;;;;;12.10;67.51;95348.44;6245166;28;19920;-68
2022/06/09 00:55:22;;;;;;;;;;;;;;;12.04;67.99;95345.56;6246872;28;19925;-68
2022/06/09 00:58:30;;;;;;;;;;;;;;;12.06;68.34;95349.72;6246838;28;19921;-68
2022/06/09 01:01:33;;;;;;;;;;;;;;;12.21;67.78;95347.41;6246510;28;19921;-68
2022/06/09 01:04:35;;;;;;;;;;;;;;;12.12;67.81;95341.22;6246595;28;19927;-69
2022/06/09 01:07:41;;;;;;;;;;;;;;;12.24;67.66;95347.13;6246745;28;19921;-68
2022/06/09 01:10:44;;;;;;;;;;;;;;;12.30;67.45;95332.50;6246585;28;19917;-68
2022/06/09 01:13:45;;;;;;;;;;;;;;;12.44;67.05;95337.28;6246168;28;19928;-67
2022/06/09 01:16:58;;;;;;;;;;;;;;;12.53;66.80;95335.56;6246265;28;19917;-68
2022/06/09 01:20:05;;;;;;;;;;;;;;;12.57;66.66;95335.13;6246248;28;19935;-68
2022/06/09 01:23:15;;;;;;;;;;;;;;;12.47;67.44;95331.72;6246015;28;19921;-69
2022/06/09 01:26:24;;;;;;;;;;;;;;;12.57;66.97;95329.84;6246329;28;19921;-69
2022/06/09 01:29:33;;;;;;;;;;;;;;;12.78;66.09;95328.72;6246078;28;19921;-69
2022/06/09 01:32:54;;;;;;;;;;;;;;;12.84;66.18;95322.84;6245868;28;20404;-68
2022/06/09 01:36:04;;;;;;;;;;;;;;;13.02;65.40;95326.31;6245722;28;20391;-67
2022/06/09 01:39:05;;;;;;;;;;;;;;;12.90;65.71;95316.94;6245660;28;19921;-68
2022/06/09 01:42:20;;;;;;;;;;;;;;;12.92;65.58;95325.56;6246083;28;19928;-69
2022/06/09 01:45:36;;;;;;;;;;;;;;;12.99;65.64;95320.47;6245687;28;19921;-67
2022/06/09 01:48:39;;;;;;;;;;;;;;;13.21;64.99;95321.81;6249822;28;19971;-68
2022/06/09 01:51:45;;;;;;;;;;;;;;;13.29;64.56;95324.56;6251114;28;20582;-67
2022/06/09 01:54:49;;;;;;;;;;;;;;;13.33;64.60;95320.59;6249586;28;19921;-67
2022/06/09 01:57:57;;;;;;;;;;;;;;;13.27;64.64;95329.16;6250818;28;19925;-68
2022/06/09 02:01:01;;;;;;;;;;;;;;;13.41;64.65;95325.94;6250770;28;19928;-68
2022/06/09 02:04:05;;;;;;;;;;;;;;;13.46;64.20;95328.97;6250342;28;20307;-68
2022/06/09 02:07:07;;;;;;;;;;;;;;;13.56;64.15;95338.59;6250640;28;20020;-68
2022/06/09 02:10:28;;;;;;;;;;;;;;;13.76;63.60;95333.91;6250773;28;19917;-67
2022/06/09 02:13:34;;;;;;;;;;;;;;;13.86;63.18;95343.41;6250556;28;19928;-67
2022/06/09 02:16:37;;;;;;;;;;;;;;;13.65;63.66;95338.50;6250451;28;19932;-68
2022/06/09 02:20:01;;;;;;;;;;;;;;;13.87;62.88;95331.88;6249106;28;20418;-67
2022/06/09 02:23:06;;;;;;;;;;;;;;;14.02;62.38;95339.22;6249724;28;20308;-68
2022/06/09 02:26:07;;;;;;;;;;;;;;;14.28;61.48;95342.59;6248917;28;19978;-67
2022/06/09 02:29:08;;;;;;;;;;;;;;;14.42;60.88;95340.34;6250164;28;19921;-68
2022/06/09 02:32:09;;;;;;;;;;;;;;;14.54;60.58;95344.38;6249835;28;19928;-68
2022/06/09 02:35:10;;;;;;;;;;;;;;;14.67;60.61;95343.94;6249970;28;19928;-67
2022/06/09 02:38:13;;;;;;;;;;;;;;;14.76;59.88;95346.41;6250065;28;20003;-68
2022/06/09 02:41:17;;;;;;;;;;;;;;;14.67;60.12;95344.75;6249484;28;20312;-67
2022/06/09 02:44:23;;;;;;;;;;;;;;;14.77;59.60;95339.31;6249630;28;19921;-67
2022/06/09 02:47:26;;;;;;;;;;;;;;;14.86;59.31;95340.13;6249721;28;19921;-67
2022/06/09 02:50:33;;;;;;;;;;;;;;;14.96;58.88;95338.19;6249564;28;19921;-67
2022/06/09 02:53:34;;;;;;;;;;;;;;;14.95;59.16;95336.53;6249340;28;19998;-68
2022/06/09 02:56:39;;;;;;;;;;;;;;;15.11;58.81;95336.53;6249397;28;19924;-68
2022/06/09 02:59:42;;;;;;;;;;;;;;;15.23;58.14;95340.53;6249335;28;19928;-68
2022/06/09 03:02:54;;;;;;;;;;;;;;;15.37;57.51;95340.81;6249395;28;19920;-67
2022/06/09 03:05:57;;;;;;;;;;;;;;;15.32;57.58;95349.28;6249259;28;20289;-68
2022/06/09 03:09:01;;;;;;;;;;;;;;;15.34;57.96;95351.75;6249159;28;20388;-67
2022/06/09 03:12:04;;;;;;;;;;;;;;;15.51;57.14;95358.72;6249067;28;19917;-67
2022/06/09 03:15:10;;;;;;;;;;;;;;;15.38;57.95;95363.69;6248866;28;19988;-68
2022/06/09 03:18:11;;;;;;;;;;;;;;;15.24;57.88;95368.66;6248574;28;19925;-67
2022/06/09 03:21:13;;;;;;;;;;;;;;;15.04;58.56;95372.63;6249110;28;19921;-67
2022/06/09 03:24:14;;;;;;;;;;;;;;;15.17;57.82;95382.72;6248674;28;19928;-68
2022/06/09 03:27:18;;;;;;;;;;;;;;;15.25;57.47;95369.47;6248539;28;19921;-68
2022/06/09 03:30:21;;;;;;;;;;;;;;;15.27;57.33;95373.63;6248419;28;20451;-68
2022/06/09 03:33:24;;;;;;;;;;;;;;;15.56;56.72;95369.66;6248473;28;20411;-68
2022/06/09 03:36:26;;;;;;;;;;;;;;;15.77;56.71;95368.31;6248676;28;19921;-67
2022/06/09 03:39:30;;;;;;;;;;;;;;;16.32;54.82;95367.53;6248277;28;20018;-67
2022/06/09 03:42:33;;;;;;;;;;;;;;;16.27;54.78;95360.06;6248641;28;19945;-67
2022/06/09 03:45:34;;;;;;;;;;;;;;;16.14;55.29;95360.63;6248069;28;19927;-68
2022/06/09 03:48:41;;;;;;;;;;;;;;;16.21;55.28;95351.97;6246909;28;20011;-67
2022/06/09 03:51:42;;;;;;;;;;;;;;;16.26;55.25;95360.25;6248495;28;19921;-67
2022/06/09 03:54:48;;;;;;;;;;;;;;;16.50;54.33;95365.47;6247778;28;19921;-68
2022/06/09 03:57:52;;;;;;;;;;;;;;;16.54;54.21;95363.28;6248134;28;19921;-68
2022/06/09 04:00:59;;;;;;;;;;;;;;;16.44;53.88;95363.47;6247824;28;19921;-68
2022/06/09 04:04:02;;;;;;;;;;;;;;;15.98;55.50;95365.97;6247910;28;19933;-68
2022/06/09 04:07:06;;;;;;;;;;;;;;;15.82;56.54;95366.00;6247688;28;20315;-68
2022/06/09 04:10:08;;;;;;;;;;;;;;;15.37;58.15;95367.31;6246741;28;19917;-67
2022/06/09 04:13:11;;;;;;;;;;;;;;;15.30;58.94;95388.38;6247709;28;20392;-68
2022/06/09 04:16:47;;;;;;;;;;;;;;;15.17;59.09;95372.97;6247527;28;19928;-68
2022/06/09 04:19:48;;;;;;;;;;;;;;;15.36;59.33;95382.41;6244222;28;19917;-67
2022/06/09 04:22:52;;;;;;;;;;;;;;;15.13;60.11;95376.94;6247348;28;19932;-67
2022/06/09 04:25:55;;;;;;;;;;;;;;;14.92;61.19;95384.50;6247125;28;19921;-67
2022/06/09 04:29:02;;;;;;;;;;;;;;;15.00;61.20;95376.56;6247126;28;19970;-67
2022/06/09 04:32:04;;;;;;;;;;;;;;;14.99;60.78;95374.94;6247143;28;19927;-68
2022/06/09 04:35:08;;;;;;;;;;;;;;;14.96;60.96;95376.09;6247063;28;19921;-68
2022/06/09 04:38:12;;;;;;;;;;;;;;;15.04;60.81;95381.41;6247117;28;19920;-68
2022/06/09 04:41:16;;;;;;;;;;;;;;;15.12;60.55;95375.28;6246749;28;19921;-69
2022/06/09 04:44:17;;;;;;;;;;;;;;;15.29;59.80;95380.59;6246954;28;19921;-68
2022/06/09 04:47:21;;;;;;;;;;;;;;;15.24;59.97;95376.59;6246916;28;19927;-68
2022/06/09 04:50:23;;;;;;;;;;;;;;;15.25;59.98;95385.38;6246773;28;19921;-68
2022/06/09 04:53:27;;;;;;;;;;;;;;;15.17;59.74;95383.56;6246812;28;19921;-68
2022/06/09 04:56:28;;;;;;;;;;;;;;;15.17;59.99;95388.88;6246753;28;19921;-69
2022/06/09 04:59:29;;;;;;;;;;;;;;;15.22;59.63;95391.84;6246570;28;20499;-69
2022/06/09 05:02:31;;;;;;;;;;;;;;;15.14;59.82;95396.31;6246514;28;19949;-68
2022/06/09 05:05:35;;;;;;;;;;;;;;;15.12;60.02;95391.19;6246140;28;20380;-68
2022/06/09 05:08:40;;;;;;;;;;;;;;;15.32;59.42;95396.16;6246083;28;19928;-67
2022/06/09 05:11:43;;;;;;;;;;;;;;;15.04;59.95;95385.88;6246311;28;20422;-68
2022/06/09 05:14:44;;;;;;;;;;;;;;;15.46;58.57;95390.22;6246238;28;19921;-68
2022/06/09 05:17:53;;;;;;;;;;;;;;;15.71;58.14;95386.59;6246253;28;19968;-68
2022/06/09 05:21:00;;;;;;;;;;;;;;;16.07;57.20;95396.78;6245516;28;19944;-67
2022/06/09 05:24:03;;;;;;;;;;;;;;;16.23;56.86;95400.41;6245849;28;19920;-68
2022/06/09 05:27:04;;;;;;;;;;;;;;;16.51;56.13;95401.63;6245840;28;20403;-67
2022/06/09 05:30:11;;;;;;;;;;;;;;;17.03;54.48;95403.72;6245874;28;20020;-70
2022/06/09 05:33:13;;;;;;;;;;;;;;;17.36;53.39;95408.84;6245903;28;20306;-71
2022/06/09 05:36:14;;;;;;;;;;;;;;;17.63;52.52;95394.16;6246039;28;19925;-71
2022/06/09 05:45:56;;;;;;;;;;;;;;;18.93;48.43;95408.94;6245955;28;20296;-69
2022/06/09 05:48:59;;;;;;;;;;;;;;;18.64;49.06;95391.97;6244602;28;19921;-68
2022/06/09 05:52:01;;;;;;;;;;;;;;;18.56;49.47;95389.41;6246002;28;19949;-68
2022/06/09 05:55:04;;;;;;;;;;;;;;;18.46;50.20;95383.56;6245586;28;19921;-67
2022/06/09 05:58:10;;;;;;;;;;;;;;;18.48;50.04;95392.16;6245712;28;19921;-67
2022/06/09 06:07:57;;;;;;;;;;;;;;;18.31;50.10;95386.19;6245580;28;19921;-68
2022/06/09 06:10:58;;;;;;;;;;;;;;;18.16;50.75;95402.16;6245582;28;19963;-68
2022/06/09 06:14:02;;;;;;;;;;;;;;;18.60;49.54;95385.38;6245143;28;19921;-68
2022/06/09 06:17:08;;;;;;;;;;;;;;;19.02;48.45;95389.16;6245511;28;20392;-67
2022/06/09 06:20:09;;;;;;;;;;;;;;;19.62;47.23;95385.28;6245524;28;19928;-67
2022/06/09 06:23:14;;;;;;;;;;;;;;;19.52;47.08;95390.91;6245343;28;20392;-68
2022/06/09 06:26:15;;;;;;;;;;;;;;;19.24;47.66;95380.19;6245240;28;19921;-67
2022/06/09 06:29:19;;;;;;;;;;;;;;;19.12;48.70;95389.69;6245376;28;19921;-67
2022/06/09 06:32:23;;;;;;;;;;;;;;;19.04;48.49;95381.81;6246764;28;20019;-67
2022/06/09 06:35:28;;;;;;;;;;;;;;;19.05;48.18;95388.78;6249815;28;19991;-68
2022/06/09 06:38:30;;;;;;;;;;;;;;;18.80;49.05;95375.81;6249462;28;19927;-67
2022/06/09 06:41:32;;;;;;;;;;;;;;;18.64;49.65;95378.66;6249781;28;20351;-68
2022/06/09 06:44:33;;;;;;;;;;;;;;;18.87;48.52;95383.06;6249466;28;19921;-68
2022/06/09 06:47:38;;;;;;;;;;;;;;;18.86;48.27;95384.09;6249642;28;19925;-69
2022/06/09 06:50:42;;;;;;;;;;;;;;;18.71;48.21;95387.56;6249681;28;19921;-68
2022/06/09 06:53:46;;;;;;;;;;;;;;;18.69;48.77;95384.25;6249429;28;20427;-68
2022/06/09 06:56:47;;;;;;;;;;;;;;;18.94;48.30;95386.59;6249131;28;19921;-68
2022/06/09 06:59:48;;;;;;;;;;;;;;;19.13;47.69;95383.34;6249659;28;19928;-67
2022/06/09 07:02:50;;;;;;;;;;;;;;;19.31;46.79;95376.78;6249435;28;20410;-68
2022/06/09 07:05:51;;;;;;;;;;;;;;;19.59;46.74;95382.13;6249342;28;19920;-67
2022/06/09 07:08:54;;;;;;;;;;;;;;;20.78;44.82;95392.88;6248973;28;19921;-68
2022/06/09 07:11:59;;;;;;;;;;;;;;;20.74;45.01;95383.59;6249018;28;19974;-68
2022/06/09 07:15:00;;;;;;;;;;;;;;;19.77;47.44;95387.06;6248854;28;19928;-68
2022/06/09 07:18:04;;;;;;;;;;;;;;;19.41;48.90;95391.41;6249088;28;19925;-67
2022/06/09 07:21:07;;;;;;;;;;;;;;;18.83;51.85;95391.44;6248691;28;19936;-67
2022/06/09 07:24:09;;;;;;;;;;;;;;;19.26;51.51;95391.50;6248797;28;19927;-67
2022/06/09 07:27:10;;;;;;;;;;;;;;;21.04;48.16;95378.78;6248313;28;19928;-68
2022/06/09 07:30:11;;;;;;;;;;;;;;;23.20;41.72;95384.38;6248415;28;19921;-66
2022/06/09 07:33:12;;;;;;;;;;;;;;;24.29;38.18;95397.66;6248494;28;19974;-67
2022/06/09 07:36:20;;;;;;;;;;;;;;;24.04;38.19;95387.78;6248583;28;19921;-68
2022/06/09 07:39:25;;;;;;;;;;;;;;;23.11;39.59;95384.88;6248545;28;19921;-67
2022/06/09 07:42:27;;;;;;;;;;;;;;;21.86;42.11;95399.09;6248238;28;19920;-68
2022/06/09 07:45:36;;;;;;;;;;;;;;;20.86;44.43;95400.69;6247464;28;19921;-67
2022/06/09 07:48:39;;;;;;;;;;;;;;;19.99;46.66;95399.34;6248135;28;20002;-68
2022/06/09 07:51:43;;;;;;;;;;;;;;;19.60;48.46;95392.63;6248361;28;19921;-67
2022/06/09 07:54:49;;;;;;;;;;;;;;;19.22;49.36;95382.22;6247997;28;20373;-68
2022/06/09 07:57:51;;;;;;;;;;;;;;;18.94;50.48;95390.13;6248055;28;19928;-68
2022/06/09 08:00:54;;;;;;;;;;;;;;;19.13;50.51;95395.84;6247896;28;20389;-67
2022/06/09 08:04:00;;;;;;;;;;;;;;;19.19;50.84;95385.28;6247952;28;19925;-67
2022/06/09 08:07:04;;;;;;;;;;;;;;;19.41;50.80;95387.94;6247814;28;19921;-68
2022/06/09 08:10:06;;;;;;;;;;;;;;;19.71;50.80;95388.66;6247944;28;19928;-68
2022/06/09 08:13:08;;;;;;;;;;;;;;;19.78;50.61;95381.50;6247402;28;19943;-68
2022/06/09 08:16:12;;;;;;;;;;;;;;;20.45;48.79;95385.47;6247301;28;19921;-67
2022/06/09 08:19:18;;;;;;;;;;;;;;;21.40;46.66;95383.84;6247205;28;19921;-67
2022/06/09 08:22:24;;;;;;;;;;;;;;;23.47;43.30;95389.63;6247627;28;19925;-68
2022/06/09 08:25:27;;;;;;;;;;;;;;;25.39;40.54;95392.31;6247295;28;20300;-68
2022/06/09 08:28:29;;;;;;;;;;;;;;;26.58;38.59;95389.66;6247046;28;20318;-68
2022/06/09 08:31:33;;;;;;;;;;;;;;;26.51;36.93;95393.50;6247123;28;20019;-67
2022/06/09 08:34:39;;;;;;;;;;;;;;;27.44;32.71;95380.88;6247171;28;19921;-67
2022/06/09 08:37:42;;;;;;;;;;;;;;;29.86;28.58;95403.03;6246968;28;20304;-67
2022/06/09 08:41:02;;;;;;;;;;;;;;;29.82;28.31;95402.75;6246784;28;19928;-68
2022/06/09 08:44:17;;;;;;;;;;;;;;;30.76;27.42;95386.94;6246818;28;19921;-67
2022/06/09 08:47:19;;;;;;;;;;;;;;;30.41;27.37;95397.31;6246767;28;20384;-67
2022/06/09 08:50:23;;;;;;;;;;;;;;;29.52;27.84;95401.31;6246552;28;19925;-67
2022/06/09 08:53:28;;;;;;;;;;;;;;;28.67;28.57;95399.97;6246604;28;19928;-68
2022/06/09 08:56:30;;;;;;;;;;;;;;;30.63;27.33;95404.47;6245268;28;19921;-67
2022/06/09 08:59:37;;;;;;;;;;;;;;;32.20;25.52;95422.50;6245570;28;19921;-66
2022/06/09 09:02:43;;;;;;;;;;;;;;;33.11;23.17;95386.47;6246695;28;19920;-66
2022/06/09 09:05:52;;;;;;;;;;;;;;;34.17;20.61;95425.25;6246412;28;19920;-67
2022/06/09 09:09:00;;;;;;;;;;;;;;;35.02;18.50;95402.06;6246357;28;19921;-67
2022/06/09 09:12:07;;;;;;;;;;;;;;;34.51;19.83;95402.53;6246154;28;19921;-67
2022/06/09 09:15:29;;;;;;;;;;;;;;;35.05;20.09;95374.16;6246308;28;20299;-67
2022/06/09 09:18:35;;;;;;;;;;;;;;;35.77;18.52;95393.22;6246182;28;20281;-68
2022/06/09 09:21:42;;;;;;;;;;;;;;;35.70;19.90;95379.94;6246407;28;20418;-67
2022/06/09 09:24:43;;;;;;;;;;;;;;;37.22;18.81;95407.00;6245693;28;20320;-66
2022/06/09 09:27:52;;;;;;;;;;;;;;;35.60;19.74;95396.47;6245929;28;19921;-67
2022/06/09 09:31:01;;;;;;;;;;;;;;;31.49;22.77;95389.75;6245956;28;19928;-66
2022/06/09 09:34:02;;;;;;;;;;;;;;;27.82;27.27;95382.13;6245791;28;20067;-66
2022/06/09 09:37:27;;;;;;;;;;;;;;;24.76;31.78;95377.34;6246070;28;19917;-68
2022/06/09 09:40:35;;;;;;;;;;;;;;;22.59;36.62;95387.47;6246055;28;19921;-68
2022/06/09 09:43:40;;;;;;;;;;;;;;;21.14;39.30;95389.88;6245714;28;19916;-67
2022/06/09 09:46:52;;;;;;;;;;;;;;;20.09;41.65;95386.47;6245434;28;20395;-68
2022/06/09 09:49:59;;;;;;;;;;;;;;;19.56;42.70;95387.84;6245593;28;19928;-68
2022/06/09 09:53:06;;;;;;;;;;;;;;;19.65;42.92;95381.41;6246107;28;20310;-68
2022/06/09 09:56:18;;;;;;;;;;;;;;;20.62;41.65;95389.50;6245913;28;19921;-67
2022/06/09 09:59:26;;;;;;;;;;;;;;;22.05;39.54;95380.56;6245799;28;19931;-68
2022/06/09 10:09:19;;;;;;;;;;;;;;;24.80;34.96;95381.25;6250102;28;19921;-68
2022/06/09 10:12:22;;;;;;;;;;;;;;;25.94;32.67;95384.06;6250412;28;20423;-68
2022/06/09 10:15:26;;;;;;;;;;;;;;;26.17;32.17;95393.25;6250366;28;19921;-68
2022/06/09 10:18:30;;;;;;;;;;;;;;;24.89;34.08;95391.72;6250557;28;19928;-68
2022/06/09 10:21:52;;;;;;;;;;;;;;;23.85;36.18;95396.81;6249969;28;20011;-68
2022/06/09 10:25:01;;;;;;;;;;;;;;;23.42;37.58;95400.19;6249682;28;19932;-68
2022/06/09 10:28:15;;;;;;;;;;;;;;;22.82;39.22;95413.84;6250104;28;19920;-67
2022/06/09 10:31:34;;;;;;;;;;;;;;;22.56;39.89;95414.72;6250173;28;19921;-68
2022/06/09 10:34:48;;;;;;;;;;;;;;;21.94;41.37;95414.97;6249983;28;19921;-68
2022/06/09 10:37:49;;;;;;;;;;;;;;;21.58;42.19;95411.84;6249984;28;19928;-69
2022/06/09 10:40:56;;;;;;;;;;;;;;;21.13;42.93;95415.00;6249521;28;19921;-69
2022/06/09 10:44:04;;;;;;;;;;;;;;;20.96;43.00;95422.53;6248551;28;19921;-68
2022/06/09 10:57:16;;;;;;;;;;;;;;;21.46;39.60;95417.00;6249168;28;19921;-68
2022/06/09 11:00:25;;;;;;;;;;;;;;;21.52;39.09;95416.16;6249540;28;19921;-68
2022/06/09 11:03:30;;;;;;;;;;;;;;;21.73;38.35;95409.81;6249858;28;19968;-68
2022/06/09 11:06:55;;;;;;;;;;;;;;;21.93;38.12;95413.31;6249234;28;19925;-67
2022/06/09 11:10:31;;;;;;;;;;;;;;;22.11;38.11;95417.25;6249149;28;19920;-68
2022/06/09 11:13:39;;;;;;;;;;;;;;;22.51;37.22;95406.50;6247535;28;19921;-68
2022/06/09 11:17:01;;;;;;;;;;;;;;;22.69;37.43;95406.66;6248919;28;19925;-68
2022/06/09 11:20:23;;;;;;;;;;;;;;;23.16;36.46;95404.66;6247682;28;20380;-68
2022/06/09 11:23:42;;;;;;;;;;;;;;;23.71;35.47;95396.91;6248649;28;20395;-68
2022/06/09 11:26:52;;;;;;;;;;;;;;;24.20;35.02;95392.59;6247503;28;19921;-71
2022/06/09 11:30:02;;;;;;;;;;;;;;;24.72;33.94;95396.88;6248848;28;19944;-68
2022/06/09 11:33:04;;;;;;;;;;;;;;;25.03;33.46;95404.78;6248277;28;19920;-67
2022/06/09 11:36:24;;;;;;;;;;;;;;;25.38;33.14;95404.16;6248253;28;19928;-68
2022/06/09 11:39:35;;;;;;;;;;;;;;;25.08;33.18;95406.78;6248483;28;19921;-69
2022/06/09 11:43:03;;;;;;;;;;;;;;;24.62;33.82;95402.75;6248333;28;20328;-68
2022/06/09 11:46:15;;;;;;;;;;;;;;;23.52;35.27;95396.00;6248332;28;19920;-68
2022/06/09 11:49:23;;;;;;;;;;;;;;;22.29;37.39;95393.34;6248151;28;19921;-68
2022/06/09 11:52:28;;;;;;;;;;;;;;;21.29;39.42;95397.78;6248059;28;19921;-68
2022/06/09 11:58:56;;;;;;;;;;;;;;;19.86;43.95;95417.94;6247455;28;19986;-68
2022/06/09 12:02:08;;;;;;;;;;;;;;;18.68;48.69;95408.41;6247565;28;20245;-69
2022/06/09 12:05:13;;;;;;;;;;;;;;;17.63;52.24;95409.28;6247633;28;19928;-67
2022/06/09 12:08:24;;;;;;;;;;;;;;;17.44;53.93;95399.97;6247534;28;19920;-68
2022/06/09 12:11:47;;;;;;;;;;;;;;;18.20;53.52;95411.44;6247619;28;19950;-68
2022/06/09 12:15:06;;;;;;;;;;;;;;;18.99;50.93;95417.00;6247327;28;19921;-67
2022/06/09 12:18:17;;;;;;;;;;;;;;;19.68;50.14;95416.53;6247452;28;19916;-69
2022/06/09 12:21:29;;;;;;;;;;;;;;;19.85;49.06;95416.28;6246026;28;19927;-67
2022/06/09 12:24:56;;;;;;;;;;;;;;;19.71;49.04;95426.84;6246592;28;19921;-68
2022/06/09 12:27:57;;;;;;;;;;;;;;;19.42;48.67;95426.91;6247052;28;19944;-68
2022/06/09 12:31:11;;;;;;;;;;;;;;;19.50;48.42;95429.47;6247036;28;19925;-68
2022/06/09 12:34:13;;;;;;;;;;;;;;;20.15;46.46;95428.41;6245696;28;19995;-68
2022/06/09 12:37:17;;;;;;;;;;;;;;;21.45;43.73;95424.16;6246983;28;19921;-69
2022/06/09 12:40:28;;;;;;;;;;;;;;;22.56;41.47;95423.59;6246706;28;19928;-67
2022/06/09 12:43:32;;;;;;;;;;;;;;;22.83;39.15;95424.34;6246956;28;19927;-68
2022/06/09 12:46:39;;;;;;;;;;;;;;;22.54;38.93;95427.53;6246537;28;19920;-68
2022/06/09 12:49:42;;;;;;;;;;;;;;;22.01;40.19;95423.00;6246440;28;20303;-69
2022/06/09 12:52:45;;;;;;;;;;;;;;;21.44;41.71;95427.88;6246536;28;19927;-67
2022/06/09 12:55:51;;;;;;;;;;;;;;;21.05;42.05;95434.72;6246625;28;20012;-68
2022/06/09 12:58:55;;;;;;;;;;;;;;;20.69;42.66;95424.25;6246492;28;19921;-69
2022/06/09 13:01:59;;;;;;;;;;;;;;;20.95;42.42;95425.44;6246477;28;20308;-68
2022/06/09 13:05:11;;;;;;;;;;;;;;;20.88;42.47;95427.25;6246494;28;19971;-68
2022/06/09 13:08:18;;;;;;;;;;;;;;;20.39;43.32;95431.69;6246511;28;19960;-68
2022/06/09 13:11:19;;;;;;;;;;;;;;;20.02;44.18;95427.50;6245190;28;19972;-68
2022/06/09 13:14:22;;;;;;;;;;;;;;;19.70;44.88;95425.19;6245948;28;19920;-67
2022/06/09 13:17:26;;;;;;;;;;;;;;;19.90;44.65;95424.53;6246097;28;19920;-68
2022/06/09 13:20:29;;;;;;;;;;;;;;;20.23;44.12;95424.78;6245074;28;20027;-68
2022/06/09 13:23:34;;;;;;;;;;;;;;;20.65;42.63;95431.03;6246450;28;19921;-68
2022/06/09 13:26:40;;;;;;;;;;;;;;;20.82;41.20;95444.91;6246082;28;20381;-67
2022/06/09 13:30:03;;;;;;;;;;;;;;;20.32;41.36;95428.13;6245822;28;19943;-68
2022/06/09 13:33:23;;;;;;;;;;;;;;;19.82;42.19;95449.53;6245756;28;20423;-68
2022/06/09 13:36:38;;;;;;;;;;;;;;;19.46;42.83;95433.53;6245671;28;20257;-68
2022/06/09 13:39:47;;;;;;;;;;;;;;;19.12;43.74;95447.53;6244607;28;20388;-68
2022/06/09 13:42:52;;;;;;;;;;;;;;;19.07;44.17;95450.75;6245025;28;20312;-67
2022/06/09 13:46:01;;;;;;;;;;;;;;;18.78;44.79;95444.44;6244238;28;20381;-68
2022/06/09 13:49:04;;;;;;;;;;;;;;;18.70;45.39;95455.16;6246013;28;19925;-67
2022/06/09 13:52:22;;;;;;;;;;;;;;;18.62;46.58;95457.91;6245832;28;20391;-68
2022/06/09 13:55:27;;;;;;;;;;;;;;;18.43;47.45;95463.78;6245558;28;19936;-67
2022/06/09 13:58:28;;;;;;;;;;;;;;;17.95;48.06;95475.56;6245247;28;19916;-68
2022/06/09 14:01:31;;;;;;;;;;;;;;;17.70;49.15;95458.94;6245283;28;20400;-68
2022/06/09 14:04:33;;;;;;;;;;;;;;;17.32;50.08;95466.00;6245685;28;20034;-67
2022/06/09 14:07:37;;;;;;;;;;;;;;;17.14;50.95;95473.44;6245531;28;19928;-68
2022/06/09 14:10:44;;;;;;;;;;;;;;;16.93;50.95;95469.56;6228337;28;19921;-67
2022/06/09 14:13:48;;;;;;;;;;;;;;;16.72;51.31;95461.28;6245704;28;19943;-67
2022/06/09 14:16:50;;;;;;;;;;;;;;;16.68;52.06;95467.97;6245572;28;19928;-68
2022/06/09 14:19:51;;;;;;;;;;;;;;;16.29;52.98;95458.94;6245226;28;20019;-68
2022/06/09 14:22:52;;;;;;;;;;;;;;;16.21;53.48;95471.41;6243958;28;19925;-68
2022/06/09 14:26:07;;;;;;;;;;;;;;;16.14;53.95;95466.75;6244936;28;19921;-68
2022/06/09 14:29:12;;;;;;;;;;;;;;;16.22;53.87;95470.38;6245367;28;20479;-67
2022/06/09 14:32:15;;;;;;;;;;;;;;;16.32;54.19;95473.69;6245689;28;19921;-67
2022/06/09 14:35:18;;;;;;;;;;;;;;;16.43;54.29;95470.69;6245202;28;19921;-68
2022/06/09 14:38:22;;;;;;;;;;;;;;;16.51;54.63;95478.63;6245160;28;19920;-67
2022/06/09 14:41:26;;;;;;;;;;;;;;;16.49;54.52;95475.31;6245046;28;19921;-67
2022/06/09 14:44:28;;;;;;;;;;;;;;;16.47;53.85;95472.00;6245268;28;19921;-68
2022/06/09 14:47:31;;;;;;;;;;;;;;;16.35;53.75;95484.78;6244867;28;19921;-68
2022/06/09 14:50:32;;;;;;;;;;;;;;;16.23;53.83;95480.84;6245148;28;19921;-68
2022/06/09 14:53:38;;;;;;;;;;;;;;;16.08;53.79;95478.06;6246817;28;19927;-68
2022/06/09 14:56:41;;;;;;;;;;;;;;;16.12;53.84;95478.53;6249721;28;19921;-68
2022/06/09 14:59:46;;;;;;;;;;;;;;;15.92;54.13;95483.38;6249486;28;19968;-68
2022/06/09 15:02:50;;;;;;;;;;;;;;;15.90;54.06;95482.69;6249257;28;20415;-68
2022/06/09 15:05:53;;;;;;;;;;;;;;;15.86;54.29;95486.69;6249092;28;19921;-68
2022/06/09 15:08:57;;;;;;;;;;;;;;;15.77;54.25;95480.56;6249445;28;19921;-69
2022/06/09 15:11:58;;;;;;;;;;;;;;;15.76;54.37;95493.97;6248802;28;19927;-68
2022/06/09 15:15:02;;;;;;;;;;;;;;;15.69;54.65;95478.72;6249106;28;20017;-67
2022/06/09 15:18:06;;;;;;;;;;;;;;;15.69;54.93;95499.94;6249234;28;20323;-67
2022/06/09 15:21:08;;;;;;;;;;;;;;;15.58;55.30;95496.75;6249036;28;19928;-67
2022/06/09 15:24:14;;;;;;;;;;;;;;;15.50;55.56;95500.22;6248991;28;19921;-68
2022/06/09 15:27:17;;;;;;;;;;;;;;;15.37;56.09;95492.75;6248428;28;19924;-69
2022/06/09 15:30:22;;;;;;;;;;;;;;;15.24;56.51;95492.38;6248426;28;19920;-68
2022/06/09 15:33:25;;;;;;;;;;;;;;;15.25;56.96;95505.44;6248718;28;20366;-68
2022/06/09 15:36:31;;;;;;;;;;;;;;;15.08;57.45;95505.56;6248825;28;20308;-67
2022/06/09 15:39:34;;;;;;;;;;;;;;;15.00;57.97;95498.41;6248856;28;19921;-68
2022/06/09 15:42:38;;;;;;;;;;;;;;;14.94;58.56;95507.84;6248249;28;19921;-68
2022/06/09 15:45:43;;;;;;;;;;;;;;;14.82;58.68;95502.00;6248145;28;19920;-68
2022/06/09 15:48:48;;;;;;;;;;;;;;;14.77;59.51;95499.00;6248394;28;19921;-68
2022/06/09 15:51:55;;;;;;;;;;;;;;;14.68;59.92;95505.25;6247902;28;19921;-69
2022/06/09 15:54:56;;;;;;;;;;;;;;;14.62;60.03;95510.34;6247529;28;19928;-68
2022/06/09 15:57:59;;;;;;;;;;;;;;;14.56;60.07;95511.81;6248011;28;19921;-68
2022/06/09 16:01:07;;;;;;;;;;;;;;;14.55;60.30;95510.13;6247657;28;20320;-67
2022/06/09 16:04:10;;;;;;;;;;;;;;;14.47;60.46;95512.72;6246561;28;19921;-69
2022/06/09 16:07:13;;;;;;;;;;;;;;;14.35;60.37;95510.34;6247204;28;19972;-68
2022/06/09 16:10:16;;;;;;;;;;;;;;;14.33;60.77;95514.13;6247470;28;19928;-68
2022/06/09 16:13:17;;;;;;;;;;;;;;;14.31;60.82;95516.91;6247297;28;19917;-67
2022/06/09 16:16:19;;;;;;;;;;;;;;;14.24;60.82;95518.53;6247571;28;19920;-68
2022/06/09 16:19:20;;;;;;;;;;;;;;;14.20;61.03;95522.47;6246212;28;19917;-68
2022/06/09 16:22:23;;;;;;;;;;;;;;;14.22;61.33;95519.69;6245772;28;20360;-68
2022/06/09 16:25:25;;;;;;;;;;;;;;;14.18;61.47;95521.78;6247195;28;20311;-67
2022/06/09 16:28:26;;;;;;;;;;;;;;;14.13;61.67;95521.44;6247098;28;19943;-69
2022/06/09 16:31:29;;;;;;;;;;;;;;;14.09;61.66;95518.25;6246944;28;20315;-68
2022/06/09 16:34:30;;;;;;;;;;;;;;;13.99;63.67;95519.34;6246828;28;19932;-68
2022/06/09 16:37:34;;;;;;;;;;;;;;;13.87;62.57;95516.94;6247275;28;20490;-69
2022/06/09 16:40:36;;;;;;;;;;;;;;;13.82;62.84;95523.69;6247038;28;19972;-68
2022/06/09 16:43:40;;;;;;;;;;;;;;;13.78;63.03;95528.41;6247141;28;19921;-68